sensor_id;sensor_type;location;lat;lon;timestamp;temperature;humidity
2012;DHT22;1009;51.436;6.972;2023-07-31T00:00:37;16.40;99.90
2012;DHT22;1009;51.436;6.972;2023-07-31T00:03:04;16.40;99.90
2012;DHT22;1009;51.436;6.972;2023-07-31T00:05:30;16.30;99.90
2012;DHT22;1009;51.436;6.972;2023-07-31T00:07:58;16.40;99.90
2012;DHT22;1009;51.436;6.972;2023-07-31T00:10:25;16.40;99.90
2012;DHT22;1009;51.436;6.972;2023-07-31T00:12:52;16.30;99.90
2012;DHT22;1009;51.436;6.972;2023-07-31T00:15:19;16.40;99.90
2012;DHT22;1009;51.436;6.972;2023-07-31T00:17:45;16.40;99.90
2012;DHT22;1009;51.436;6.972;2023-07-31T00:20:13;16.40;99.90
2012;DHT22;1009;51.436;6.972;2023-07-31T00:22:39;16.40;99.90
2012;DHT22;1009;51.436;6.972;2023-07-31T00:25:08;16.30;99.90
2012;DHT22;1009;51.436;6.972;2023-07-31T00:27:34;16.30;99.90
2012;DHT22;1009;51.436;6.972;2023-07-31T00:30:02;16.30;99.90
2012;DHT22;1009;51.436;6.972;2023-07-31T00:32:28;16.30;99.90
2012;DHT22;1009;51.436;6.972;2023-07-31T00:34:55;16.40;99.90
2012;DHT22;1009;51.436;6.972;2023-07-31T00:37:22;16.40;99.90
2012;DHT22;1009;51.436;6.972;2023-07-31T00:39:49;16.30;99.90
2012;DHT22;1009;51.436;6.972;2023-07-31T00:42:17;16.40;99.90
2012;DHT22;1009;51.436;6.972;2023-07-31T00:44:44;16.40;99.90
2012;DHT22;1009;51.436;6.972;2023-07-31T00:47:11;16.30;99.90
2012;DHT22;1009;51.436;6.972;2023-07-31T00:49:38;16.40;99.90
2012;DHT22;1009;51.436;6.972;2023-07-31T00:52:05;16.40;99.90
2012;DHT22;1009;51.436;6.972;2023-07-31T00:54:32;16.40;99.90
2012;DHT22;1009;51.436;6.972;2023-07-31T00:57:00;16.40;99.90
2012;DHT22;1009;51.436;6.972;2023-07-31T00:59:28;16.40;99.90
2012;DHT22;1009;51.436;6.972;2023-07-31T01:01:54;16.40;99.90
2012;DHT22;1009;51.436;6.972;2023-07-31T01:04:21;16.30;99.90
2012;DHT22;1009;51.436;6.972;2023-07-31T01:06:53;16.30;99.90
2012;DHT22;1009;51.436;6.972;2023-07-31T01:09:28;16.30;99.90
2012;DHT22;1009;51.436;6.972;2023-07-31T01:11:57;16.40;99.90
2012;DHT22;1009;51.436;6.972;2023-07-31T01:14:28;16.30;99.90
2012;DHT22;1009;51.436;6.972;2023-07-31T01:16:54;16.30;99.90
2012;DHT22;1009;51.436;6.972;2023-07-31T01:19:23;16.30;99.90
2012;DHT22;1009;51.436;6.972;2023-07-31T01:22:04;16.30;99.90
2012;DHT22;1009;51.436;6.972;2023-07-31T01:24:42;16.30;99.90
2012;DHT22;1009;51.436;6.972;2023-07-31T01:27:17;16.30;99.90
2012;DHT22;1009;51.436;6.972;2023-07-31T01:29:52;16.30;99.90
2012;DHT22;1009;51.436;6.972;2023-07-31T01:32:23;16.30;99.90
2012;DHT22;1009;51.436;6.972;2023-07-31T01:34:51;16.30;99.90
2012;DHT22;1009;51.436;6.972;2023-07-31T01:37:19;16.30;99.90
2012;DHT22;1009;51.436;6.972;2023-07-31T01:39:45;16.30;99.90
2012;DHT22;1009;51.436;6.972;2023-07-31T01:42:13;16.20;99.90
2012;DHT22;1009;51.436;6.972;2023-07-31T01:44:40;16.20;99.90
2012;DHT22;1009;51.436;6.972;2023-07-31T01:47:07;16.20;99.90
2012;DHT22;1009;51.436;6.972;2023-07-31T01:49:34;16.20;99.90
2012;DHT22;1009;51.436;6.972;2023-07-31T01:52:00;16.20;99.90
2012;DHT22;1009;51.436;6.972;2023-07-31T01:54:27;16.20;99.90
2012;DHT22;1009;51.436;6.972;2023-07-31T01:56:54;16.20;99.90
2012;DHT22;1009;51.436;6.972;2023-07-31T01:59:22;16.20;99.90
2012;DHT22;1009;51.436;6.972;2023-07-31T02:01:49;16.20;99.90
2012;DHT22;1009;51.436;6.972;2023-07-31T02:04:15;16.20;99.90
2012;DHT22;1009;51.436;6.972;2023-07-31T02:06:43;16.20;99.90
2012;DHT22;1009;51.436;6.972;2023-07-31T02:09:10;16.20;99.90
2012;DHT22;1009;51.436;6.972;2023-07-31T02:11:37;16.30;99.90
2012;DHT22;1009;51.436;6.972;2023-07-31T02:14:03;16.20;99.90
2012;DHT22;1009;51.436;6.972;2023-07-31T02:16:31;16.20;99.90
2012;DHT22;1009;51.436;6.972;2023-07-31T02:18:58;16.20;99.90
2012;DHT22;1009;51.436;6.972;2023-07-31T02:21:25;16.20;99.90
2012;DHT22;1009;51.436;6.972;2023-07-31T02:23:52;16.20;99.90
2012;DHT22;1009;51.436;6.972;2023-07-31T02:26:18;16.20;99.90
2012;DHT22;1009;51.436;6.972;2023-07-31T02:28:45;16.20;99.90
2012;DHT22;1009;51.436;6.972;2023-07-31T02:31:12;16.20;99.90
2012;DHT22;1009;51.436;6.972;2023-07-31T02:33:40;16.20;99.90
2012;DHT22;1009;51.436;6.972;2023-07-31T02:36:07;16.20;99.90
2012;DHT22;1009;51.436;6.972;2023-07-31T02:38:34;16.10;99.90
2012;DHT22;1009;51.436;6.972;2023-07-31T02:41:00;16.10;99.90
2012;DHT22;1009;51.436;6.972;2023-07-31T02:43:27;16.10;99.90
2012;DHT22;1009;51.436;6.972;2023-07-31T02:45:54;16.20;99.90
2012;DHT22;1009;51.436;6.972;2023-07-31T02:48:20;16.10;99.90
2012;DHT22;1009;51.436;6.972;2023-07-31T02:50:49;16.10;99.90
2012;DHT22;1009;51.436;6.972;2023-07-31T02:53:15;16.10;99.90
2012;DHT22;1009;51.436;6.972;2023-07-31T02:55:42;16.10;99.90
2012;DHT22;1009;51.436;6.972;2023-07-31T02:58:09;16.10;99.90
2012;DHT22;1009;51.436;6.972;2023-07-31T03:00:35;16.20;99.90
2012;DHT22;1009;51.436;6.972;2023-07-31T03:03:02;16.10;99.90
2012;DHT22;1009;51.436;6.972;2023-07-31T03:05:29;16.10;99.90
2012;DHT22;1009;51.436;6.972;2023-07-31T03:07:57;16.20;99.90
2012;DHT22;1009;51.436;6.972;2023-07-31T03:10:24;16.10;99.90
2012;DHT22;1009;51.436;6.972;2023-07-31T03:12:50;16.10;99.90
2012;DHT22;1009;51.436;6.972;2023-07-31T03:15:17;16.10;99.90
2012;DHT22;1009;51.436;6.972;2023-07-31T03:17:44;16.10;99.90
2012;DHT22;1009;51.436;6.972;2023-07-31T03:20:11;16.20;99.90
2012;DHT22;1009;51.436;6.972;2023-07-31T03:22:38;16.20;99.90
2012;DHT22;1009;51.436;6.972;2023-07-31T03:25:07;16.20;99.90
2012;DHT22;1009;51.436;6.972;2023-07-31T03:27:35;16.20;99.90
2012;DHT22;1009;51.436;6.972;2023-07-31T03:30:02;16.20;99.90
2012;DHT22;1009;51.436;6.972;2023-07-31T03:32:29;16.20;99.90
2012;DHT22;1009;51.436;6.972;2023-07-31T03:34:56;16.20;99.90
2012;DHT22;1009;51.436;6.972;2023-07-31T03:37:23;16.20;99.90
2012;DHT22;1009;51.436;6.972;2023-07-31T03:39:50;16.20;99.90
2012;DHT22;1009;51.436;6.972;2023-07-31T03:42:18;16.30;99.90
2012;DHT22;1009;51.436;6.972;2023-07-31T03:44:45;16.30;99.90
2012;DHT22;1009;51.436;6.972;2023-07-31T03:47:11;16.30;99.90
2012;DHT22;1009;51.436;6.972;2023-07-31T03:49:38;16.40;99.90
2012;DHT22;1009;51.436;6.972;2023-07-31T03:52:06;16.40;99.90
2012;DHT22;1009;51.436;6.972;2023-07-31T03:54:33;16.40;99.90
2012;DHT22;1009;51.436;6.972;2023-07-31T03:56:59;16.40;99.90
2012;DHT22;1009;51.436;6.972;2023-07-31T03:59:28;16.40;99.90
2012;DHT22;1009;51.436;6.972;2023-07-31T04:01:55;16.40;99.90
2012;DHT22;1009;51.436;6.972;2023-07-31T04:04:21;16.40;99.90
2012;DHT22;1009;51.436;6.972;2023-07-31T04:06:48;16.40;99.90
2012;DHT22;1009;51.436;6.972;2023-07-31T04:09:15;16.40;99.90
2012;DHT22;1009;51.436;6.972;2023-07-31T04:11:42;16.50;99.90
2012;DHT22;1009;51.436;6.972;2023-07-31T04:14:08;16.40;99.90
2012;DHT22;1009;51.436;6.972;2023-07-31T04:16:36;16.50;99.90
2012;DHT22;1009;51.436;6.972;2023-07-31T04:19:03;16.60;99.90
2012;DHT22;1009;51.436;6.972;2023-07-31T04:21:30;16.60;99.90
2012;DHT22;1009;51.436;6.972;2023-07-31T04:23:57;16.60;99.90
2012;DHT22;1009;51.436;6.972;2023-07-31T04:26:24;16.70;99.90
2012;DHT22;1009;51.436;6.972;2023-07-31T04:28:50;16.70;99.90
2012;DHT22;1009;51.436;6.972;2023-07-31T04:31:17;16.70;99.90
2012;DHT22;1009;51.436;6.972;2023-07-31T04:33:45;16.70;99.90
2012;DHT22;1009;51.436;6.972;2023-07-31T04:36:12;16.70;99.90
2012;DHT22;1009;51.436;6.972;2023-07-31T04:38:39;16.70;99.90
2012;DHT22;1009;51.436;6.972;2023-07-31T04:41:06;16.60;99.90
2012;DHT22;1009;51.436;6.972;2023-07-31T04:43:33;16.70;99.90
2012;DHT22;1009;51.436;6.972;2023-07-31T04:46:00;16.80;99.90
2012;DHT22;1009;51.436;6.972;2023-07-31T04:48:27;16.70;99.90
2012;DHT22;1009;51.436;6.972;2023-07-31T04:50:55;16.70;99.90
2012;DHT22;1009;51.436;6.972;2023-07-31T04:53:22;16.70;99.90
2012;DHT22;1009;51.436;6.972;2023-07-31T04:55:48;16.80;99.90
2012;DHT22;1009;51.436;6.972;2023-07-31T04:58:15;16.80;99.90
2012;DHT22;1009;51.436;6.972;2023-07-31T05:00:42;16.80;99.90
2012;DHT22;1009;51.436;6.972;2023-07-31T05:03:09;16.80;99.90
2012;DHT22;1009;51.436;6.972;2023-07-31T05:05:36;16.90;99.90
2012;DHT22;1009;51.436;6.972;2023-07-31T05:08:04;16.80;99.90
2012;DHT22;1009;51.436;6.972;2023-07-31T05:10:31;16.90;99.90
2012;DHT22;1009;51.436;6.972;2023-07-31T05:12:58;16.90;99.90
2012;DHT22;1009;51.436;6.972;2023-07-31T05:15:24;17.00;99.90
2012;DHT22;1009;51.436;6.972;2023-07-31T05:17:51;17.10;99.90
2012;DHT22;1009;51.436;6.972;2023-07-31T05:20:18;17.10;99.90
2012;DHT22;1009;51.436;6.972;2023-07-31T05:22:44;17.10;99.90
2012;DHT22;1009;51.436;6.972;2023-07-31T05:25:13;17.10;99.90
2012;DHT22;1009;51.436;6.972;2023-07-31T05:27:39;17.10;99.90
2012;DHT22;1009;51.436;6.972;2023-07-31T05:30:07;17.10;99.90
2012;DHT22;1009;51.436;6.972;2023-07-31T05:32:34;17.10;99.90
2012;DHT22;1009;51.436;6.972;2023-07-31T05:35:01;17.20;99.90
2012;DHT22;1009;51.436;6.972;2023-07-31T05:37:28;17.10;99.90
2012;DHT22;1009;51.436;6.972;2023-07-31T05:39:54;17.20;99.90
2012;DHT22;1009;51.436;6.972;2023-07-31T05:42:23;17.20;99.90
2012;DHT22;1009;51.436;6.972;2023-07-31T05:44:50;17.10;99.90
2012;DHT22;1009;51.436;6.972;2023-07-31T05:47:16;17.10;99.90
2012;DHT22;1009;51.436;6.972;2023-07-31T05:49:43;17.10;99.90
2012;DHT22;1009;51.436;6.972;2023-07-31T05:52:10;17.10;99.90
2012;DHT22;1009;51.436;6.972;2023-07-31T05:54:37;17.10;99.90
2012;DHT22;1009;51.436;6.972;2023-07-31T05:57:05;17.10;99.90
2012;DHT22;1009;51.436;6.972;2023-07-31T05:59:33;17.10;99.90
2012;DHT22;1009;51.436;6.972;2023-07-31T06:02:00;17.10;99.90
2012;DHT22;1009;51.436;6.972;2023-07-31T06:04:27;17.10;99.90
2012;DHT22;1009;51.436;6.972;2023-07-31T06:06:54;17.10;99.90
2012;DHT22;1009;51.436;6.972;2023-07-31T06:09:20;17.20;99.90
2012;DHT22;1009;51.436;6.972;2023-07-31T06:11:47;17.20;99.90
2012;DHT22;1009;51.436;6.972;2023-07-31T06:14:14;17.20;99.90
2012;DHT22;1009;51.436;6.972;2023-07-31T06:16:42;17.20;99.90
2012;DHT22;1009;51.436;6.972;2023-07-31T06:19:09;17.20;99.90
2012;DHT22;1009;51.436;6.972;2023-07-31T06:21:36;17.20;99.90
2012;DHT22;1009;51.436;6.972;2023-07-31T06:24:04;17.30;99.90
2012;DHT22;1009;51.436;6.972;2023-07-31T06:26:30;17.30;99.90
2012;DHT22;1009;51.436;6.972;2023-07-31T06:28:57;17.30;99.90
2012;DHT22;1009;51.436;6.972;2023-07-31T06:31:24;17.20;99.90
2012;DHT22;1009;51.436;6.972;2023-07-31T06:33:52;17.30;99.90
2012;DHT22;1009;51.436;6.972;2023-07-31T06:36:19;17.30;99.90
2012;DHT22;1009;51.436;6.972;2023-07-31T06:38:46;17.30;99.90
2012;DHT22;1009;51.436;6.972;2023-07-31T06:41:13;17.20;99.90
2012;DHT22;1009;51.436;6.972;2023-07-31T06:43:40;17.20;99.90
2012;DHT22;1009;51.436;6.972;2023-07-31T06:46:07;17.20;99.90
2012;DHT22;1009;51.436;6.972;2023-07-31T06:48:34;17.20;99.90
2012;DHT22;1009;51.436;6.972;2023-07-31T06:51:03;17.20;99.90
2012;DHT22;1009;51.436;6.972;2023-07-31T06:53:30;17.10;99.90
2012;DHT22;1009;51.436;6.972;2023-07-31T06:55:57;17.10;99.90
2012;DHT22;1009;51.436;6.972;2023-07-31T06:58:24;17.00;99.90
2012;DHT22;1009;51.436;6.972;2023-07-31T07:00:50;17.10;99.90
2012;DHT22;1009;51.436;6.972;2023-07-31T07:03:18;17.00;99.90
2012;DHT22;1009;51.436;6.972;2023-07-31T07:05:45;17.00;99.90
2012;DHT22;1009;51.436;6.972;2023-07-31T07:08:13;16.90;99.90
2012;DHT22;1009;51.436;6.972;2023-07-31T07:10:40;17.00;99.90
2012;DHT22;1009;51.436;6.972;2023-07-31T07:13:07;16.90;99.90
2012;DHT22;1009;51.436;6.972;2023-07-31T07:15:34;17.00;99.90
2012;DHT22;1009;51.436;6.972;2023-07-31T07:18:00;16.90;99.90
2012;DHT22;1009;51.436;6.972;2023-07-31T07:20:28;16.90;99.90
2012;DHT22;1009;51.436;6.972;2023-07-31T07:22:55;16.90;99.90
2012;DHT22;1009;51.436;6.972;2023-07-31T07:25:23;16.90;99.90
2012;DHT22;1009;51.436;6.972;2023-07-31T07:27:50;16.90;99.90
2012;DHT22;1009;51.436;6.972;2023-07-31T07:30:17;17.00;99.90
2012;DHT22;1009;51.436;6.972;2023-07-31T07:32:45;17.00;99.90
2012;DHT22;1009;51.436;6.972;2023-07-31T07:35:12;16.90;99.90
2012;DHT22;1009;51.436;6.972;2023-07-31T07:37:38;17.00;99.90
2012;DHT22;1009;51.436;6.972;2023-07-31T07:40:06;17.00;99.90
2012;DHT22;1009;51.436;6.972;2023-07-31T07:42:35;17.00;99.90
2012;DHT22;1009;51.436;6.972;2023-07-31T07:45:01;17.00;99.90
2012;DHT22;1009;51.436;6.972;2023-07-31T07:47:28;17.00;99.90
2012;DHT22;1009;51.436;6.972;2023-07-31T07:49:55;17.00;99.90
2012;DHT22;1009;51.436;6.972;2023-07-31T07:52:22;16.90;99.90
2012;DHT22;1009;51.436;6.972;2023-07-31T07:54:49;16.90;99.90
2012;DHT22;1009;51.436;6.972;2023-07-31T07:57:15;16.90;99.90
2012;DHT22;1009;51.436;6.972;2023-07-31T07:59:44;16.90;99.90
2012;DHT22;1009;51.436;6.972;2023-07-31T08:02:11;16.80;99.90
2012;DHT22;1009;51.436;6.972;2023-07-31T08:04:37;16.90;99.90
2012;DHT22;1009;51.436;6.972;2023-07-31T08:07:04;16.80;99.90
2012;DHT22;1009;51.436;6.972;2023-07-31T08:09:31;16.80;99.90
2012;DHT22;1009;51.436;6.972;2023-07-31T08:11:58;16.80;99.90
2012;DHT22;1009;51.436;6.972;2023-07-31T08:14:28;16.80;99.90
2012;DHT22;1009;51.436;6.972;2023-07-31T08:16:56;16.80;99.90
2012;DHT22;1009;51.436;6.972;2023-07-31T08:19:23;16.90;99.90
2012;DHT22;1009;51.436;6.972;2023-07-31T08:21:50;16.90;99.90
2012;DHT22;1009;51.436;6.972;2023-07-31T08:24:17;16.90;99.90
2012;DHT22;1009;51.436;6.972;2023-07-31T08:26:44;17.00;99.90
2012;DHT22;1009;51.436;6.972;2023-07-31T08:29:11;16.90;99.90
2012;DHT22;1009;51.436;6.972;2023-07-31T08:31:38;16.90;99.90
2012;DHT22;1009;51.436;6.972;2023-07-31T08:34:06;16.90;99.90
2012;DHT22;1009;51.436;6.972;2023-07-31T08:36:33;16.90;99.90
2012;DHT22;1009;51.436;6.972;2023-07-31T08:39:00;16.80;99.90
2012;DHT22;1009;51.436;6.972;2023-07-31T08:41:27;16.80;99.90
2012;DHT22;1009;51.436;6.972;2023-07-31T08:43:55;16.80;99.90
2012;DHT22;1009;51.436;6.972;2023-07-31T08:46:23;16.90;99.90
2012;DHT22;1009;51.436;6.972;2023-07-31T08:48:51;17.00;99.90
2012;DHT22;1009;51.436;6.972;2023-07-31T08:51:21;17.00;99.90
2012;DHT22;1009;51.436;6.972;2023-07-31T08:53:48;16.90;99.90
2012;DHT22;1009;51.436;6.972;2023-07-31T08:56:15;16.90;99.90
2012;DHT22;1009;51.436;6.972;2023-07-31T08:58:43;16.90;99.90
2012;DHT22;1009;51.436;6.972;2023-07-31T09:01:10;16.90;99.90
2012;DHT22;1009;51.436;6.972;2023-07-31T09:03:39;17.00;99.90
2012;DHT22;1009;51.436;6.972;2023-07-31T09:06:07;17.00;99.90
2012;DHT22;1009;51.436;6.972;2023-07-31T09:08:35;17.00;99.90
2012;DHT22;1009;51.436;6.972;2023-07-31T09:11:03;16.90;99.90
2012;DHT22;1009;51.436;6.972;2023-07-31T09:13:31;16.90;99.90
2012;DHT22;1009;51.436;6.972;2023-07-31T09:15:58;16.80;99.90
2012;DHT22;1009;51.436;6.972;2023-07-31T09:18:25;16.80;99.90
2012;DHT22;1009;51.436;6.972;2023-07-31T09:21:02;16.80;99.90
2012;DHT22;1009;51.436;6.972;2023-07-31T09:23:42;16.80;99.90
2012;DHT22;1009;51.436;6.972;2023-07-31T09:26:09;16.90;99.90
2012;DHT22;1009;51.436;6.972;2023-07-31T09:28:36;16.90;99.90
2012;DHT22;1009;51.436;6.972;2023-07-31T09:31:03;16.90;99.90
2012;DHT22;1009;51.436;6.972;2023-07-31T09:33:30;16.90;99.90
2012;DHT22;1009;51.436;6.972;2023-07-31T09:35:59;16.90;99.90
2012;DHT22;1009;51.436;6.972;2023-07-31T09:38:27;17.00;99.90
2012;DHT22;1009;51.436;6.972;2023-07-31T09:40:55;16.90;99.90
2012;DHT22;1009;51.436;6.972;2023-07-31T09:43:25;16.90;99.90
2012;DHT22;1009;51.436;6.972;2023-07-31T09:45:55;16.90;99.90
2012;DHT22;1009;51.436;6.972;2023-07-31T09:48:24;16.90;99.90
2012;DHT22;1009;51.436;6.972;2023-07-31T09:50:53;16.90;99.90
2012;DHT22;1009;51.436;6.972;2023-07-31T09:53:28;17.00;99.90
2012;DHT22;1009;51.436;6.972;2023-07-31T09:55:58;17.00;99.90
2012;DHT22;1009;51.436;6.972;2023-07-31T09:58:28;17.00;99.90
2012;DHT22;1009;51.436;6.972;2023-07-31T10:00:57;17.10;99.90
2012;DHT22;1009;51.436;6.972;2023-07-31T10:03:25;17.10;99.90
2012;DHT22;1009;51.436;6.972;2023-07-31T10:05:53;17.10;99.90
2012;DHT22;1009;51.436;6.972;2023-07-31T10:08:27;17.10;99.90
2012;DHT22;1009;51.436;6.972;2023-07-31T10:10:58;17.10;99.90
2012;DHT22;1009;51.436;6.972;2023-07-31T10:13:28;17.10;99.90
2012;DHT22;1009;51.436;6.972;2023-07-31T10:15:59;17.10;99.90
2012;DHT22;1009;51.436;6.972;2023-07-31T10:18:26;17.00;99.90
2012;DHT22;1009;51.436;6.972;2023-07-31T10:20:55;17.00;99.90
2012;DHT22;1009;51.436;6.972;2023-07-31T10:23:23;17.00;99.90
2012;DHT22;1009;51.436;6.972;2023-07-31T10:25:51;17.00;99.90
2012;DHT22;1009;51.436;6.972;2023-07-31T10:28:21;17.00;99.90
2012;DHT22;1009;51.436;6.972;2023-07-31T10:30:49;17.00;99.90
2012;DHT22;1009;51.436;6.972;2023-07-31T10:33:17;16.90;99.90
2012;DHT22;1009;51.436;6.972;2023-07-31T10:35:47;17.00;99.90
2012;DHT22;1009;51.436;6.972;2023-07-31T10:38:14;17.00;99.90
2012;DHT22;1009;51.436;6.972;2023-07-31T10:40:41;17.00;99.90
2012;DHT22;1009;51.436;6.972;2023-07-31T10:43:08;17.00;99.90
2012;DHT22;1009;51.436;6.972;2023-07-31T10:45:39;17.00;99.90
2012;DHT22;1009;51.436;6.972;2023-07-31T10:48:12;17.00;99.90
2012;DHT22;1009;51.436;6.972;2023-07-31T10:50:48;17.10;99.90
2012;DHT22;1009;51.436;6.972;2023-07-31T10:53:23;17.10;99.90
2012;DHT22;1009;51.436;6.972;2023-07-31T10:55:50;17.20;99.90
2012;DHT22;1009;51.436;6.972;2023-07-31T10:58:19;17.20;99.90
2012;DHT22;1009;51.436;6.972;2023-07-31T11:00:48;17.30;99.90
2012;DHT22;1009;51.436;6.972;2023-07-31T11:03:16;17.30;99.90
2012;DHT22;1009;51.436;6.972;2023-07-31T11:05:48;17.30;99.90
2012;DHT22;1009;51.436;6.972;2023-07-31T11:08:16;17.30;99.90
2012;DHT22;1009;51.436;6.972;2023-07-31T11:10:43;17.50;99.90
2012;DHT22;1009;51.436;6.972;2023-07-31T11:13:10;17.50;99.90
2012;DHT22;1009;51.436;6.972;2023-07-31T11:15:37;17.50;99.90
2012;DHT22;1009;51.436;6.972;2023-07-31T11:18:05;17.50;99.90
2012;DHT22;1009;51.436;6.972;2023-07-31T11:20:34;17.50;99.90
2012;DHT22;1009;51.436;6.972;2023-07-31T11:23:02;17.60;99.90
2012;DHT22;1009;51.436;6.972;2023-07-31T11:25:30;17.60;99.90
2012;DHT22;1009;51.436;6.972;2023-07-31T11:27:57;17.70;99.90
2012;DHT22;1009;51.436;6.972;2023-07-31T11:30:24;17.70;99.90
2012;DHT22;1009;51.436;6.972;2023-07-31T11:32:51;17.70;99.90
2012;DHT22;1009;51.436;6.972;2023-07-31T11:35:19;17.70;99.90
2012;DHT22;1009;51.436;6.972;2023-07-31T11:37:46;17.70;99.90
2012;DHT22;1009;51.436;6.972;2023-07-31T11:40:14;17.90;99.90
2012;DHT22;1009;51.436;6.972;2023-07-31T11:42:41;18.00;99.90
2012;DHT22;1009;51.436;6.972;2023-07-31T11:45:09;18.10;99.90
2012;DHT22;1009;51.436;6.972;2023-07-31T11:47:36;18.10;99.90
2012;DHT22;1009;51.436;6.972;2023-07-31T11:50:05;18.10;99.90
2012;DHT22;1009;51.436;6.972;2023-07-31T11:52:36;18.10;99.90
2012;DHT22;1009;51.436;6.972;2023-07-31T11:55:05;18.00;99.90
2012;DHT22;1009;51.436;6.972;2023-07-31T11:57:35;18.00;99.90
2012;DHT22;1009;51.436;6.972;2023-07-31T12:00:04;18.10;99.90
2012;DHT22;1009;51.436;6.972;2023-07-31T12:02:31;18.10;99.90
2012;DHT22;1009;51.436;6.972;2023-07-31T12:04:58;18.00;99.90
2012;DHT22;1009;51.436;6.972;2023-07-31T12:07:25;18.00;99.90
2012;DHT22;1009;51.436;6.972;2023-07-31T12:09:54;18.00;99.90
2012;DHT22;1009;51.436;6.972;2023-07-31T12:12:23;17.90;99.90
2012;DHT22;1009;51.436;6.972;2023-07-31T12:14:50;17.90;99.90
2012;DHT22;1009;51.436;6.972;2023-07-31T12:17:18;17.90;99.90
2012;DHT22;1009;51.436;6.972;2023-07-31T12:19:46;17.80;99.90
2012;DHT22;1009;51.436;6.972;2023-07-31T12:22:15;17.80;99.90
2012;DHT22;1009;51.436;6.972;2023-07-31T12:24:43;17.80;99.90
2012;DHT22;1009;51.436;6.972;2023-07-31T12:27:13;17.80;99.90
2012;DHT22;1009;51.436;6.972;2023-07-31T12:29:42;17.80;99.90
2012;DHT22;1009;51.436;6.972;2023-07-31T12:32:20;17.80;99.90
2012;DHT22;1009;51.436;6.972;2023-07-31T12:34:47;17.80;99.90
2012;DHT22;1009;51.436;6.972;2023-07-31T12:37:14;17.90;99.90
2012;DHT22;1009;51.436;6.972;2023-07-31T12:39:41;17.90;99.90
2012;DHT22;1009;51.436;6.972;2023-07-31T12:42:08;17.90;99.90
2012;DHT22;1009;51.436;6.972;2023-07-31T12:44:36;17.80;99.90
2012;DHT22;1009;51.436;6.972;2023-07-31T12:47:03;17.80;99.90
2012;DHT22;1009;51.436;6.972;2023-07-31T12:49:30;17.90;99.90
2012;DHT22;1009;51.436;6.972;2023-07-31T12:51:57;17.90;99.90
2012;DHT22;1009;51.436;6.972;2023-07-31T12:54:23;17.90;99.90
2012;DHT22;1009;51.436;6.972;2023-07-31T12:56:50;17.90;99.90
2012;DHT22;1009;51.436;6.972;2023-07-31T12:59:17;17.90;99.90
2012;DHT22;1009;51.436;6.972;2023-07-31T13:01:45;17.90;99.90
2012;DHT22;1009;51.436;6.972;2023-07-31T13:04:12;17.90;99.90
2012;DHT22;1009;51.436;6.972;2023-07-31T13:06:40;18.00;99.90
2012;DHT22;1009;51.436;6.972;2023-07-31T13:09:06;17.90;99.90
2012;DHT22;1009;51.436;6.972;2023-07-31T13:11:34;17.90;99.90
2012;DHT22;1009;51.436;6.972;2023-07-31T13:14:01;17.90;99.90
2012;DHT22;1009;51.436;6.972;2023-07-31T13:16:28;17.90;99.90
2012;DHT22;1009;51.436;6.972;2023-07-31T13:18:56;17.90;99.90
2012;DHT22;1009;51.436;6.972;2023-07-31T13:21:23;17.90;99.90
2012;DHT22;1009;51.436;6.972;2023-07-31T13:23:50;18.00;99.90
2012;DHT22;1009;51.436;6.972;2023-07-31T13:26:16;18.00;99.90
2012;DHT22;1009;51.436;6.972;2023-07-31T13:28:43;18.00;99.90
2012;DHT22;1009;51.436;6.972;2023-07-31T13:31:10;18.10;99.90
2012;DHT22;1009;51.436;6.972;2023-07-31T13:33:37;18.10;99.90
2012;DHT22;1009;51.436;6.972;2023-07-31T13:36:06;18.20;99.90
2012;DHT22;1009;51.436;6.972;2023-07-31T13:38:32;18.20;99.90
2012;DHT22;1009;51.436;6.972;2023-07-31T13:40:59;18.20;99.90
2012;DHT22;1009;51.436;6.972;2023-07-31T13:43:26;18.20;99.90
2012;DHT22;1009;51.436;6.972;2023-07-31T13:45:53;18.30;99.90
2012;DHT22;1009;51.436;6.972;2023-07-31T13:48:19;18.40;99.90
2012;DHT22;1009;51.436;6.972;2023-07-31T13:50:46;18.40;99.90
2012;DHT22;1009;51.436;6.972;2023-07-31T13:53:15;18.40;99.90
2012;DHT22;1009;51.436;6.972;2023-07-31T13:55:41;18.40;99.90
2012;DHT22;1009;51.436;6.972;2023-07-31T13:58:11;18.40;99.90
2012;DHT22;1009;51.436;6.972;2023-07-31T14:00:37;18.40;99.90
2012;DHT22;1009;51.436;6.972;2023-07-31T14:03:04;18.50;99.90
2012;DHT22;1009;51.436;6.972;2023-07-31T14:05:31;18.50;99.90
2012;DHT22;1009;51.436;6.972;2023-07-31T14:07:58;18.60;99.90
2012;DHT22;1009;51.436;6.972;2023-07-31T14:10:26;18.80;99.90
2012;DHT22;1009;51.436;6.972;2023-07-31T14:12:53;18.90;99.90
2012;DHT22;1009;51.436;6.972;2023-07-31T14:15:19;19.00;99.90
2012;DHT22;1009;51.436;6.972;2023-07-31T14:17:46;19.20;99.90
2012;DHT22;1009;51.436;6.972;2023-07-31T14:20:13;19.20;99.90
2012;DHT22;1009;51.436;6.972;2023-07-31T14:22:39;19.20;99.90
2012;DHT22;1009;51.436;6.972;2023-07-31T14:25:07;19.20;99.90
2012;DHT22;1009;51.436;6.972;2023-07-31T14:27:37;19.20;99.90
2012;DHT22;1009;51.436;6.972;2023-07-31T14:30:05;19.10;99.90
2012;DHT22;1009;51.436;6.972;2023-07-31T14:32:32;19.00;99.90
2012;DHT22;1009;51.436;6.972;2023-07-31T14:34:58;18.90;99.90
2012;DHT22;1009;51.436;6.972;2023-07-31T14:37:26;18.90;99.90
2012;DHT22;1009;51.436;6.972;2023-07-31T14:39:53;18.80;99.90
2012;DHT22;1009;51.436;6.972;2023-07-31T14:42:21;18.80;99.90
2012;DHT22;1009;51.436;6.972;2023-07-31T14:44:49;18.70;99.90
2012;DHT22;1009;51.436;6.972;2023-07-31T14:47:16;18.70;99.90
2012;DHT22;1009;51.436;6.972;2023-07-31T14:49:46;18.70;99.90
2012;DHT22;1009;51.436;6.972;2023-07-31T14:52:13;18.50;99.90
2012;DHT22;1009;51.436;6.972;2023-07-31T14:54:40;18.60;99.90
2012;DHT22;1009;51.436;6.972;2023-07-31T14:57:06;18.50;99.90
2012;DHT22;1009;51.436;6.972;2023-07-31T14:59:33;18.50;99.90
2012;DHT22;1009;51.436;6.972;2023-07-31T15:02:02;18.40;99.90
2012;DHT22;1009;51.436;6.972;2023-07-31T15:04:29;18.40;99.90
2012;DHT22;1009;51.436;6.972;2023-07-31T15:06:56;18.40;99.90
2012;DHT22;1009;51.436;6.972;2023-07-31T15:09:23;18.30;99.90
2012;DHT22;1009;51.436;6.972;2023-07-31T15:11:49;18.30;99.90
2012;DHT22;1009;51.436;6.972;2023-07-31T15:14:16;18.20;99.90
2012;DHT22;1009;51.436;6.972;2023-07-31T15:16:43;18.20;99.90
2012;DHT22;1009;51.436;6.972;2023-07-31T15:19:11;18.20;99.90
2012;DHT22;1009;51.436;6.972;2023-07-31T15:21:38;18.20;99.90
2012;DHT22;1009;51.436;6.972;2023-07-31T15:24:05;18.20;99.90
2012;DHT22;1009;51.436;6.972;2023-07-31T15:26:32;18.20;99.90
2012;DHT22;1009;51.436;6.972;2023-07-31T15:29:01;18.30;99.90
2012;DHT22;1009;51.436;6.972;2023-07-31T15:31:30;18.30;99.90
2012;DHT22;1009;51.436;6.972;2023-07-31T15:33:57;18.30;99.90
2012;DHT22;1009;51.436;6.972;2023-07-31T15:36:25;18.40;99.90
2012;DHT22;1009;51.436;6.972;2023-07-31T15:38:52;18.40;99.90
2012;DHT22;1009;51.436;6.972;2023-07-31T15:41:19;18.40;99.90
2012;DHT22;1009;51.436;6.972;2023-07-31T15:43:46;18.50;99.90
2012;DHT22;1009;51.436;6.972;2023-07-31T15:46:13;18.50;99.90
2012;DHT22;1009;51.436;6.972;2023-07-31T15:48:40;18.50;99.90
2012;DHT22;1009;51.436;6.972;2023-07-31T15:51:07;18.50;99.90
2012;DHT22;1009;51.436;6.972;2023-07-31T15:53:35;18.50;99.90
2012;DHT22;1009;51.436;6.972;2023-07-31T15:56:03;18.50;99.90
2012;DHT22;1009;51.436;6.972;2023-07-31T15:58:29;18.50;99.90
2012;DHT22;1009;51.436;6.972;2023-07-31T16:00:56;18.60;99.90
2012;DHT22;1009;51.436;6.972;2023-07-31T16:03:24;18.60;99.90